Florence Regional Airport
KFLO : now visible

Airfield :











YOU CAN JOIN US ON...

 
LOGIN :

Register | Disclaimer

   EN    FR    IT 

 









Legend :    VFR   Marginal VFR   IFR   Intensive IFR   Very Intensive IFR
Visi :
Ceiling :
>= 8 km
>= 3000ft
5 to 8 km
1000 to 3000 ft
1500m to 5 km
500 to 1000 ft
800 to 1500m
200 to 500 ft
< 800m
< 200 ft
Symbols :   Thunderstorms  Fog  Heavy snow  Heavy precipitations  Wind > 20 kt






- Airport Elevation : 146 ft
- IATA code : FLO


KFLO - Florence Regional

CURRENT METAR :
  • 170310Z AUTO 03004KT 5SM -RA BR SCT004 OVC023 09/07 A3013 RMK AO2 P0000 T00890072

EXPIRED METARs :
  • 170253Z 01004KT 2SM -RA BR BKN004 OVC019 09/07 A3014 RMK AO2 SFC VIS 4 SLP204 LAST P0004 60013 T00890072 50004
  • 170228Z 35004KT 2SM -RA BR BKN004 OVC017 09/07 A3014 RMK AO2 SFC VIS 3 P0003 T00890072
  • 170219Z 34005KT 2SM -RA BR SCT004 BKN015 OVC020 09/07 A3014 RMK AO2 SFC VIS 2 1/2 P0002 T00890072
  • 170153Z 35005KT 2SM -RA BR OVC005 09/07 A3014 RMK AO2 SFC VIS 3 SLP205 P0008 T00890072
  • 170113Z 34006KT 2SM -RA BR SCT005 OVC012 09/07 A3014 RMK AO2 SFC VIS 2 1/2 P0002 T00890072
  • 170053Z 33006KT 3SM -RA BR SCT005 BKN012 OVC017 09/07 A3013 RMK AO2 SFC VIS 4 SLP203 P0001 T00890072
  • 170019Z 02005KT 7SM -RA FEW005 OVC018 09/07 A3012 RMK AO2 P0000 T00890072

TAF KFLO
Valid from the 17 at 02:00 until the 18 at 00:00 UTC


170157Z 1702/1724 VRB04KT 5SM BR SCT005 OVC012
TEMPO 1702/1704 2SM -RA BR OVC005
FM170400 VRB03KT 4SM -DZ BR OVC004
FM170600 35004KT 3SM BR OVC003
TEMPO 1707/1711 3/4SM BR OVC002
FM171200 03005KT P6SM BKN015
FM171400 06006KT P6SM SCT040 BKN250



MET'MAP, your aeronautical weather chart ! - Copyright ORBIFLY December 2007 - Disclaimer

ORBIFLY MET'MAP TEAM :

Programming & Development : Alexandra Zaïnal
Concept & original design : Baudouin d'Aumeries
Assistance for programming : Marc-Olivier Méhu
Technical & hardware support : Manuel Goepfert

Contact : metmap@orbifly.com




SOURCES & CREDITS :

   NOAA       Earth
Advisory